sensor_id;sensor_type;location;lat;lon;timestamp;P1;durP1;ratioP1;P2;durP2;ratioP2
44658;SDS011;30378;50.186;8.644;2022-11-30T00:01:09;43.65;;;11.82;;
44658;SDS011;30378;50.186;8.644;2022-11-30T00:03:38;47.30;;;11.95;;
44658;SDS011;30378;50.186;8.644;2022-11-30T00:06:06;38.05;;;12.60;;
44658;SDS011;30378;50.186;8.644;2022-11-30T00:08:35;46.03;;;12.93;;
44658;SDS011;30378;50.186;8.644;2022-11-30T00:11:15;35.88;;;11.38;;
44658;SDS011;30378;50.186;8.644;2022-11-30T00:13:43;43.63;;;13.10;;
44658;SDS011;30378;50.186;8.644;2022-11-30T00:16:10;49.20;;;13.07;;
44658;SDS011;30378;50.186;8.644;2022-11-30T00:18:37;48.65;;;14.00;;
44658;SDS011;30378;50.186;8.644;2022-11-30T00:23:35;42.83;;;13.52;;
44658;SDS011;30378;50.186;8.644;2022-11-30T00:26:08;33.45;;;10.27;;
44658;SDS011;30378;50.186;8.644;2022-11-30T00:28:36;39.42;;;12.40;;
44658;SDS011;30378;50.186;8.644;2022-11-30T00:31:05;38.83;;;12.32;;
44658;SDS011;30378;50.186;8.644;2022-11-30T00:33:35;34.05;;;11.35;;
44658;SDS011;30378;50.186;8.644;2022-11-30T00:36:04;40.53;;;11.30;;
44658;SDS011;30378;50.186;8.644;2022-11-30T00:38:33;33.67;;;11.05;;
44658;SDS011;30378;50.186;8.644;2022-11-30T00:41:00;44.35;;;11.73;;
44658;SDS011;30378;50.186;8.644;2022-11-30T00:43:28;31.92;;;11.30;;
44658;SDS011;30378;50.186;8.644;2022-11-30T00:45:55;38.40;;;12.57;;
44658;SDS011;30378;50.186;8.644;2022-11-30T00:48:23;37.60;;;11.63;;
44658;SDS011;30378;50.186;8.644;2022-11-30T00:53:17;42.85;;;11.52;;
44658;SDS011;30378;50.186;8.644;2022-11-30T00:55:46;37.70;;;12.35;;
44658;SDS011;30378;50.186;8.644;2022-11-30T00:58:13;38.42;;;11.75;;
44658;SDS011;30378;50.186;8.644;2022-11-30T01:00:40;38.38;;;10.98;;
44658;SDS011;30378;50.186;8.644;2022-11-30T01:03:08;44.35;;;11.55;;
44658;SDS011;30378;50.186;8.644;2022-11-30T01:05:35;41.65;;;11.05;;
44658;SDS011;30378;50.186;8.644;2022-11-30T01:08:03;40.20;;;11.32;;
44658;SDS011;30378;50.186;8.644;2022-11-30T01:10:32;47.53;;;12.15;;
44658;SDS011;30378;50.186;8.644;2022-11-30T01:13:00;41.08;;;10.85;;
44658;SDS011;30378;50.186;8.644;2022-11-30T01:15:27;43.03;;;11.35;;
44658;SDS011;30378;50.186;8.644;2022-11-30T01:17:54;45.47;;;10.93;;
44658;SDS011;30378;50.186;8.644;2022-11-30T01:20:21;51.97;;;12.52;;
44658;SDS011;30378;50.186;8.644;2022-11-30T01:22:48;49.60;;;11.55;;
44658;SDS011;30378;50.186;8.644;2022-11-30T01:25:15;47.13;;;11.50;;
44658;SDS011;30378;50.186;8.644;2022-11-30T01:27:42;49.95;;;12.18;;
44658;SDS011;30378;50.186;8.644;2022-11-30T01:30:09;41.83;;;11.25;;
44658;SDS011;30378;50.186;8.644;2022-11-30T01:32:36;43.47;;;12.45;;
44658;SDS011;30378;50.186;8.644;2022-11-30T01:35:03;42.05;;;11.00;;
44658;SDS011;30378;50.186;8.644;2022-11-30T01:37:30;47.58;;;11.68;;
44658;SDS011;30378;50.186;8.644;2022-11-30T01:39:57;45.90;;;11.88;;
44658;SDS011;30378;50.186;8.644;2022-11-30T01:42:24;49.50;;;12.38;;
44658;SDS011;30378;50.186;8.644;2022-11-30T01:44:53;41.08;;;12.20;;
44658;SDS011;30378;50.186;8.644;2022-11-30T01:47:24;41.80;;;12.93;;
44658;SDS011;30378;50.186;8.644;2022-11-30T01:49:54;40.10;;;11.70;;
44658;SDS011;30378;50.186;8.644;2022-11-30T01:52:31;49.85;;;12.23;;
44658;SDS011;30378;50.186;8.644;2022-11-30T01:57:38;38.55;;;12.05;;
44658;SDS011;30378;50.186;8.644;2022-11-30T02:00:12;46.65;;;13.25;;
44658;SDS011;30378;50.186;8.644;2022-11-30T02:02:48;50.50;;;12.98;;
44658;SDS011;30378;50.186;8.644;2022-11-30T02:05:25;47.03;;;12.40;;
44658;SDS011;30378;50.186;8.644;2022-11-30T02:07:53;44.05;;;12.55;;
44658;SDS011;30378;50.186;8.644;2022-11-30T02:10:22;42.83;;;12.95;;
44658;SDS011;30378;50.186;8.644;2022-11-30T02:15:22;41.00;;;11.68;;
44658;SDS011;30378;50.186;8.644;2022-11-30T02:17:57;37.38;;;11.00;;
44658;SDS011;30378;50.186;8.644;2022-11-30T02:26:12;44.35;;;13.07;;
44658;SDS011;30378;50.186;8.644;2022-11-30T02:32:08;42.20;;;13.15;;
44658;SDS011;30378;50.186;8.644;2022-11-30T02:34:41;49.78;;;12.35;;
44658;SDS011;30378;50.186;8.644;2022-11-30T02:37:10;40.67;;;10.85;;
44658;SDS011;30378;50.186;8.644;2022-11-30T02:39:39;48.75;;;14.52;;
44658;SDS011;30378;50.186;8.644;2022-11-30T02:42:12;44.42;;;13.48;;
44658;SDS011;30378;50.186;8.644;2022-11-30T02:44:40;49.58;;;13.57;;
44658;SDS011;30378;50.186;8.644;2022-11-30T02:47:21;48.35;;;13.52;;
44658;SDS011;30378;50.186;8.644;2022-11-30T02:50:00;47.10;;;13.02;;
44658;SDS011;30378;50.186;8.644;2022-11-30T02:52:31;52.50;;;12.80;;
44658;SDS011;30378;50.186;8.644;2022-11-30T02:55:03;46.05;;;14.93;;
44658;SDS011;30378;50.186;8.644;2022-11-30T02:57:33;43.72;;;12.82;;
44658;SDS011;30378;50.186;8.644;2022-11-30T03:00:00;45.97;;;13.52;;
44658;SDS011;30378;50.186;8.644;2022-11-30T03:02:30;50.00;;;13.85;;
44658;SDS011;30378;50.186;8.644;2022-11-30T03:04:57;42.05;;;13.32;;
44658;SDS011;30378;50.186;8.644;2022-11-30T03:07:24;49.90;;;13.85;;
44658;SDS011;30378;50.186;8.644;2022-11-30T03:09:51;38.50;;;11.70;;
44658;SDS011;30378;50.186;8.644;2022-11-30T03:12:18;40.67;;;11.93;;
44658;SDS011;30378;50.186;8.644;2022-11-30T03:14:45;39.20;;;12.02;;
44658;SDS011;30378;50.186;8.644;2022-11-30T03:17:12;43.75;;;11.38;;
44658;SDS011;30378;50.186;8.644;2022-11-30T03:19:39;50.10;;;12.77;;
44658;SDS011;30378;50.186;8.644;2022-11-30T03:22:06;46.75;;;13.23;;
44658;SDS011;30378;50.186;8.644;2022-11-30T03:27:00;45.17;;;11.63;;
44658;SDS011;30378;50.186;8.644;2022-11-30T03:29:27;47.63;;;12.48;;
44658;SDS011;30378;50.186;8.644;2022-11-30T03:31:54;42.58;;;12.18;;
44658;SDS011;30378;50.186;8.644;2022-11-30T03:34:21;42.47;;;12.48;;
44658;SDS011;30378;50.186;8.644;2022-11-30T03:36:51;52.58;;;13.68;;
44658;SDS011;30378;50.186;8.644;2022-11-30T03:39:18;46.80;;;12.85;;
44658;SDS011;30378;50.186;8.644;2022-11-30T03:41:45;42.58;;;13.32;;
44658;SDS011;30378;50.186;8.644;2022-11-30T03:44:12;45.53;;;12.20;;
44658;SDS011;30378;50.186;8.644;2022-11-30T03:46:39;43.47;;;12.38;;
44658;SDS011;30378;50.186;8.644;2022-11-30T03:51:33;45.80;;;11.77;;
44658;SDS011;30378;50.186;8.644;2022-11-30T03:54:00;39.17;;;10.88;;
44658;SDS011;30378;50.186;8.644;2022-11-30T03:56:27;41.03;;;12.20;;
44658;SDS011;30378;50.186;8.644;2022-11-30T03:58:54;43.85;;;11.40;;
44658;SDS011;30378;50.186;8.644;2022-11-30T04:01:21;51.95;;;12.02;;
44658;SDS011;30378;50.186;8.644;2022-11-30T04:03:49;41.13;;;11.27;;
44658;SDS011;30378;50.186;8.644;2022-11-30T04:06:18;45.60;;;12.18;;
44658;SDS011;30378;50.186;8.644;2022-11-30T04:08:45;41.45;;;11.50;;
44658;SDS011;30378;50.186;8.644;2022-11-30T04:11:12;44.13;;;11.27;;
44658;SDS011;30378;50.186;8.644;2022-11-30T04:13:40;45.70;;;12.45;;
44658;SDS011;30378;50.186;8.644;2022-11-30T04:16:07;49.90;;;12.95;;
44658;SDS011;30378;50.186;8.644;2022-11-30T04:18:35;50.50;;;12.73;;
44658;SDS011;30378;50.186;8.644;2022-11-30T04:21:03;59.58;;;13.77;;
44658;SDS011;30378;50.186;8.644;2022-11-30T04:23:32;51.25;;;12.65;;
44658;SDS011;30378;50.186;8.644;2022-11-30T04:26:02;60.75;;;13.90;;
44658;SDS011;30378;50.186;8.644;2022-11-30T04:28:30;51.22;;;13.65;;
44658;SDS011;30378;50.186;8.644;2022-11-30T04:30:57;54.53;;;13.85;;
44658;SDS011;30378;50.186;8.644;2022-11-30T04:33:26;62.92;;;16.13;;
44658;SDS011;30378;50.186;8.644;2022-11-30T04:35:58;50.65;;;12.40;;
44658;SDS011;30378;50.186;8.644;2022-11-30T04:38:27;58.03;;;13.45;;
44658;SDS011;30378;50.186;8.644;2022-11-30T04:40:55;51.78;;;13.77;;
44658;SDS011;30378;50.186;8.644;2022-11-30T04:43:22;48.88;;;13.25;;
44658;SDS011;30378;50.186;8.644;2022-11-30T04:45:49;53.63;;;14.75;;
44658;SDS011;30378;50.186;8.644;2022-11-30T04:48:17;55.30;;;14.27;;
44658;SDS011;30378;50.186;8.644;2022-11-30T04:50:44;46.25;;;12.93;;
44658;SDS011;30378;50.186;8.644;2022-11-30T04:53:11;49.65;;;14.07;;
44658;SDS011;30378;50.186;8.644;2022-11-30T04:55:38;48.25;;;12.50;;
44658;SDS011;30378;50.186;8.644;2022-11-30T04:58:06;54.35;;;14.55;;
44658;SDS011;30378;50.186;8.644;2022-11-30T05:00:33;42.83;;;12.40;;
44658;SDS011;30378;50.186;8.644;2022-11-30T05:03:01;54.92;;;13.57;;
44658;SDS011;30378;50.186;8.644;2022-11-30T05:05:28;48.92;;;13.95;;
44658;SDS011;30378;50.186;8.644;2022-11-30T05:07:56;46.38;;;12.77;;
44658;SDS011;30378;50.186;8.644;2022-11-30T05:10:24;37.75;;;12.20;;
44658;SDS011;30378;50.186;8.644;2022-11-30T05:12:52;42.70;;;11.85;;
44658;SDS011;30378;50.186;8.644;2022-11-30T05:15:19;42.78;;;11.00;;
44658;SDS011;30378;50.186;8.644;2022-11-30T05:20:13;44.97;;;11.63;;
44658;SDS011;30378;50.186;8.644;2022-11-30T05:22:41;52.05;;;13.55;;
44658;SDS011;30378;50.186;8.644;2022-11-30T05:25:08;46.30;;;13.23;;
44658;SDS011;30378;50.186;8.644;2022-11-30T05:30:02;44.70;;;11.77;;
44658;SDS011;30378;50.186;8.644;2022-11-30T05:32:29;57.40;;;13.13;;
44658;SDS011;30378;50.186;8.644;2022-11-30T05:34:56;48.78;;;12.25;;
44658;SDS011;30378;50.186;8.644;2022-11-30T05:39:50;55.75;;;13.23;;
44658;SDS011;30378;50.186;8.644;2022-11-30T05:42:17;59.17;;;14.43;;
44658;SDS011;30378;50.186;8.644;2022-11-30T05:44:44;61.92;;;14.85;;
44658;SDS011;30378;50.186;8.644;2022-11-30T05:47:11;55.80;;;14.68;;
44658;SDS011;30378;50.186;8.644;2022-11-30T05:49:38;52.83;;;14.25;;
44658;SDS011;30378;50.186;8.644;2022-11-30T05:52:05;63.60;;;14.77;;
44658;SDS011;30378;50.186;8.644;2022-11-30T05:54:33;54.28;;;13.30;;
44658;SDS011;30378;50.186;8.644;2022-11-30T05:59:27;45.08;;;10.77;;
44658;SDS011;30378;50.186;8.644;2022-11-30T06:01:54;46.13;;;12.25;;
44658;SDS011;30378;50.186;8.644;2022-11-30T06:04:21;55.05;;;11.15;;
44658;SDS011;30378;50.186;8.644;2022-11-30T06:06:48;42.90;;;11.45;;
44658;SDS011;30378;50.186;8.644;2022-11-30T06:09:16;43.55;;;11.10;;
44658;SDS011;30378;50.186;8.644;2022-11-30T06:11:43;52.55;;;11.80;;
44658;SDS011;30378;50.186;8.644;2022-11-30T06:14:10;54.47;;;12.82;;
44658;SDS011;30378;50.186;8.644;2022-11-30T06:16:37;50.80;;;12.00;;
44658;SDS011;30378;50.186;8.644;2022-11-30T06:19:05;51.58;;;11.18;;
44658;SDS011;30378;50.186;8.644;2022-11-30T06:21:32;41.47;;;11.45;;
44658;SDS011;30378;50.186;8.644;2022-11-30T06:23:59;46.63;;;11.15;;
44658;SDS011;30378;50.186;8.644;2022-11-30T06:28:53;48.15;;;10.82;;
44658;SDS011;30378;50.186;8.644;2022-11-30T06:31:20;63.13;;;12.10;;
44658;SDS011;30378;50.186;8.644;2022-11-30T06:33:47;41.60;;;10.55;;
44658;SDS011;30378;50.186;8.644;2022-11-30T06:36:19;40.28;;;11.82;;
44658;SDS011;30378;50.186;8.644;2022-11-30T06:38:47;50.95;;;11.52;;
44658;SDS011;30378;50.186;8.644;2022-11-30T06:41:14;55.35;;;13.00;;
44658;SDS011;30378;50.186;8.644;2022-11-30T06:43:41;39.70;;;10.25;;
44658;SDS011;30378;50.186;8.644;2022-11-30T06:46:08;38.85;;;10.15;;
44658;SDS011;30378;50.186;8.644;2022-11-30T06:48:35;45.25;;;9.38;;
44658;SDS011;30378;50.186;8.644;2022-11-30T06:51:06;41.30;;;10.25;;
44658;SDS011;30378;50.186;8.644;2022-11-30T06:53:34;45.22;;;10.60;;
44658;SDS011;30378;50.186;8.644;2022-11-30T06:56:03;54.80;;;11.63;;
44658;SDS011;30378;50.186;8.644;2022-11-30T06:58:35;59.60;;;12.95;;
44658;SDS011;30378;50.186;8.644;2022-11-30T07:01:03;52.90;;;12.98;;
44658;SDS011;30378;50.186;8.644;2022-11-30T07:03:31;56.55;;;14.07;;
44658;SDS011;30378;50.186;8.644;2022-11-30T07:05:58;62.42;;;14.45;;
44658;SDS011;30378;50.186;8.644;2022-11-30T07:08:25;68.30;;;14.75;;
44658;SDS011;30378;50.186;8.644;2022-11-30T07:10:52;72.95;;;15.18;;
44658;SDS011;30378;50.186;8.644;2022-11-30T07:13:19;65.13;;;16.80;;
44658;SDS011;30378;50.186;8.644;2022-11-30T07:15:46;75.13;;;15.82;;
44658;SDS011;30378;50.186;8.644;2022-11-30T07:18:13;76.95;;;16.27;;
44658;SDS011;30378;50.186;8.644;2022-11-30T07:20:41;76.85;;;15.63;;
44658;SDS011;30378;50.186;8.644;2022-11-30T07:23:08;67.68;;;18.08;;
44658;SDS011;30378;50.186;8.644;2022-11-30T07:25:57;69.70;;;14.93;;
44658;SDS011;30378;50.186;8.644;2022-11-30T07:28:32;73.20;;;16.48;;
44658;SDS011;30378;50.186;8.644;2022-11-30T07:31:11;65.32;;;14.57;;
44658;SDS011;30378;50.186;8.644;2022-11-30T07:33:41;74.65;;;15.70;;
44658;SDS011;30378;50.186;8.644;2022-11-30T07:36:08;59.50;;;15.95;;
44658;SDS011;30378;50.186;8.644;2022-11-30T07:38:36;71.80;;;17.08;;
44658;SDS011;30378;50.186;8.644;2022-11-30T07:41:03;70.97;;;16.83;;
44658;SDS011;30378;50.186;8.644;2022-11-30T07:43:30;75.00;;;16.35;;
44658;SDS011;30378;50.186;8.644;2022-11-30T07:45:58;65.47;;;15.70;;
44658;SDS011;30378;50.186;8.644;2022-11-30T07:48:26;66.57;;;16.08;;
44658;SDS011;30378;50.186;8.644;2022-11-30T07:53:20;67.13;;;16.50;;
44658;SDS011;30378;50.186;8.644;2022-11-30T07:55:47;69.78;;;15.70;;
44658;SDS011;30378;50.186;8.644;2022-11-30T07:58:16;64.05;;;15.75;;
44658;SDS011;30378;50.186;8.644;2022-11-30T08:00:43;69.53;;;15.95;;
44658;SDS011;30378;50.186;8.644;2022-11-30T08:03:10;72.63;;;16.73;;
44658;SDS011;30378;50.186;8.644;2022-11-30T08:05:37;78.05;;;18.77;;
44658;SDS011;30378;50.186;8.644;2022-11-30T08:08:03;79.80;;;17.48;;
44658;SDS011;30378;50.186;8.644;2022-11-30T08:10:31;73.68;;;17.10;;
44658;SDS011;30378;50.186;8.644;2022-11-30T08:12:57;81.03;;;15.93;;
44658;SDS011;30378;50.186;8.644;2022-11-30T08:15:24;77.38;;;16.60;;
44658;SDS011;30378;50.186;8.644;2022-11-30T08:17:58;73.63;;;16.80;;
44658;SDS011;30378;50.186;8.644;2022-11-30T08:20:25;81.05;;;17.67;;
44658;SDS011;30378;50.186;8.644;2022-11-30T08:22:52;61.17;;;16.15;;
44658;SDS011;30378;50.186;8.644;2022-11-30T08:25:19;72.85;;;17.05;;
44658;SDS011;30378;50.186;8.644;2022-11-30T08:27:46;72.47;;;16.27;;
44658;SDS011;30378;50.186;8.644;2022-11-30T08:30:13;78.63;;;16.83;;
44658;SDS011;30378;50.186;8.644;2022-11-30T08:32:40;81.70;;;18.88;;
44658;SDS011;30378;50.186;8.644;2022-11-30T08:35:07;68.22;;;16.23;;
44658;SDS011;30378;50.186;8.644;2022-11-30T08:37:35;81.20;;;19.38;;
44658;SDS011;30378;50.186;8.644;2022-11-30T08:40:03;69.65;;;16.00;;
44658;SDS011;30378;50.186;8.644;2022-11-30T08:42:31;78.85;;;16.92;;
44658;SDS011;30378;50.186;8.644;2022-11-30T08:44:58;78.13;;;17.45;;
44658;SDS011;30378;50.186;8.644;2022-11-30T08:49:53;79.93;;;16.30;;
44658;SDS011;30378;50.186;8.644;2022-11-30T08:52:20;75.53;;;16.33;;
44658;SDS011;30378;50.186;8.644;2022-11-30T08:54:47;84.15;;;17.25;;
44658;SDS011;30378;50.186;8.644;2022-11-30T08:57:16;77.15;;;16.27;;
44658;SDS011;30378;50.186;8.644;2022-11-30T08:59:44;75.18;;;15.63;;
44658;SDS011;30378;50.186;8.644;2022-11-30T09:04:42;77.05;;;16.48;;
44658;SDS011;30378;50.186;8.644;2022-11-30T09:09:36;78.32;;;16.77;;
44658;SDS011;30378;50.186;8.644;2022-11-30T09:12:04;70.88;;;15.85;;
44658;SDS011;30378;50.186;8.644;2022-11-30T09:14:32;77.97;;;17.83;;
44658;SDS011;30378;50.186;8.644;2022-11-30T09:16:59;70.80;;;17.38;;
44658;SDS011;30378;50.186;8.644;2022-11-30T09:19:26;64.38;;;15.88;;
44658;SDS011;30378;50.186;8.644;2022-11-30T09:21:53;61.50;;;15.48;;
44658;SDS011;30378;50.186;8.644;2022-11-30T09:24:20;66.35;;;14.52;;
44658;SDS011;30378;50.186;8.644;2022-11-30T09:26:47;72.97;;;15.43;;
44658;SDS011;30378;50.186;8.644;2022-11-30T09:29:14;75.55;;;16.08;;
44658;SDS011;30378;50.186;8.644;2022-11-30T09:31:41;65.88;;;15.13;;
44658;SDS011;30378;50.186;8.644;2022-11-30T09:34:08;66.25;;;13.68;;
44658;SDS011;30378;50.186;8.644;2022-11-30T09:36:36;63.40;;;14.45;;
44658;SDS011;30378;50.186;8.644;2022-11-30T09:39:03;55.95;;;16.63;;
44658;SDS011;30378;50.186;8.644;2022-11-30T09:50:21;61.40;;;14.07;;
44658;SDS011;30378;50.186;8.644;2022-11-30T09:55:27;47.63;;;14.02;;
44658;SDS011;30378;50.186;8.644;2022-11-30T09:57:58;50.22;;;13.73;;
44658;SDS011;30378;50.186;8.644;2022-11-30T10:00:28;53.78;;;13.80;;
44658;SDS011;30378;50.186;8.644;2022-11-30T10:02:56;49.45;;;13.38;;
44658;SDS011;30378;50.186;8.644;2022-11-30T10:05:28;46.70;;;14.63;;
44658;SDS011;30378;50.186;8.644;2022-11-30T10:13:35;58.83;;;16.42;;
44658;SDS011;30378;50.186;8.644;2022-11-30T10:21:46;43.45;;;12.18;;
44658;SDS011;30378;50.186;8.644;2022-11-30T10:27:50;52.05;;;13.30;;
44658;SDS011;30378;50.186;8.644;2022-11-30T10:30:22;50.08;;;12.90;;
44658;SDS011;30378;50.186;8.644;2022-11-30T10:32:52;48.47;;;13.07;;
44658;SDS011;30378;50.186;8.644;2022-11-30T10:35:22;43.50;;;12.88;;
44658;SDS011;30378;50.186;8.644;2022-11-30T10:38:02;47.88;;;11.23;;
44658;SDS011;30378;50.186;8.644;2022-11-30T10:43:19;39.70;;;10.73;;
44658;SDS011;30378;50.186;8.644;2022-11-30T10:45:54;38.88;;;11.05;;
44658;SDS011;30378;50.186;8.644;2022-11-30T10:48:30;30.92;;;9.70;;
44658;SDS011;30378;50.186;8.644;2022-11-30T10:50:59;34.15;;;9.48;;
44658;SDS011;30378;50.186;8.644;2022-11-30T10:53:27;34.53;;;9.52;;
44658;SDS011;30378;50.186;8.644;2022-11-30T10:55:57;38.47;;;10.68;;
44658;SDS011;30378;50.186;8.644;2022-11-30T10:58:35;26.95;;;9.43;;
44658;SDS011;30378;50.186;8.644;2022-11-30T11:01:09;31.88;;;8.75;;
44658;SDS011;30378;50.186;8.644;2022-11-30T11:06:43;29.45;;;9.05;;
44658;SDS011;30378;50.186;8.644;2022-11-30T11:09:39;34.47;;;8.77;;
44658;SDS011;30378;50.186;8.644;2022-11-30T11:12:16;35.33;;;10.20;;
44658;SDS011;30378;50.186;8.644;2022-11-30T11:14:46;32.05;;;9.55;;
44658;SDS011;30378;50.186;8.644;2022-11-30T11:17:20;33.92;;;9.50;;
44658;SDS011;30378;50.186;8.644;2022-11-30T11:19:49;27.55;;;7.75;;
44658;SDS011;30378;50.186;8.644;2022-11-30T11:22:35;29.75;;;7.97;;
44658;SDS011;30378;50.186;8.644;2022-11-30T11:25:18;22.95;;;7.20;;
44658;SDS011;30378;50.186;8.644;2022-11-30T11:27:51;23.95;;;8.00;;
44658;SDS011;30378;50.186;8.644;2022-11-30T11:30:27;22.05;;;6.10;;
44658;SDS011;30378;50.186;8.644;2022-11-30T11:32:58;24.08;;;7.18;;
44658;SDS011;30378;50.186;8.644;2022-11-30T11:35:32;22.30;;;6.45;;
44658;SDS011;30378;50.186;8.644;2022-11-30T11:38:02;21.05;;;7.53;;
44658;SDS011;30378;50.186;8.644;2022-11-30T11:43:30;38.90;;;10.48;;
44658;SDS011;30378;50.186;8.644;2022-11-30T11:46:08;34.28;;;9.95;;
44658;SDS011;30378;50.186;8.644;2022-11-30T11:48:40;29.25;;;8.38;;
44658;SDS011;30378;50.186;8.644;2022-11-30T11:51:36;32.58;;;9.40;;
44658;SDS011;30378;50.186;8.644;2022-11-30T11:56:43;34.58;;;10.93;;
44658;SDS011;30378;50.186;8.644;2022-11-30T12:04:15;30.85;;;8.35;;
44658;SDS011;30378;50.186;8.644;2022-11-30T12:06:46;27.95;;;8.50;;
44658;SDS011;30378;50.186;8.644;2022-11-30T12:09:32;31.20;;;8.20;;
44658;SDS011;30378;50.186;8.644;2022-11-30T12:12:08;23.75;;;8.18;;
44658;SDS011;30378;50.186;8.644;2022-11-30T12:14:38;32.53;;;9.02;;
44658;SDS011;30378;50.186;8.644;2022-11-30T12:25:56;25.10;;;7.97;;
44658;SDS011;30378;50.186;8.644;2022-11-30T12:28:39;22.60;;;7.55;;
44658;SDS011;30378;50.186;8.644;2022-11-30T12:31:39;24.60;;;7.80;;
44658;SDS011;30378;50.186;8.644;2022-11-30T12:34:29;20.63;;;7.10;;
44658;SDS011;30378;50.186;8.644;2022-11-30T12:53:37;28.70;;;10.32;;
44658;SDS011;30378;50.186;8.644;2022-11-30T13:04:36;36.28;;;12.10;;
44658;SDS011;30378;50.186;8.644;2022-11-30T13:07:56;37.00;;;11.35;;
44658;SDS011;30378;50.186;8.644;2022-11-30T13:10:17;34.38;;;10.85;;
44658;SDS011;30378;50.186;8.644;2022-11-30T13:12:55;35.67;;;11.48;;
44658;SDS011;30378;50.186;8.644;2022-11-30T13:15:28;39.88;;;11.13;;
44658;SDS011;30378;50.186;8.644;2022-11-30T13:17:58;39.97;;;12.15;;
44658;SDS011;30378;50.186;8.644;2022-11-30T13:20:43;41.45;;;12.20;;
44658;SDS011;30378;50.186;8.644;2022-11-30T13:31:54;40.30;;;12.00;;
44658;SDS011;30378;50.186;8.644;2022-11-30T13:34:31;43.35;;;12.52;;
44658;SDS011;30378;50.186;8.644;2022-11-30T13:37:03;37.60;;;12.00;;
44658;SDS011;30378;50.186;8.644;2022-11-30T13:39:42;38.78;;;11.32;;
44658;SDS011;30378;50.186;8.644;2022-11-30T13:47:46;35.40;;;11.70;;
44658;SDS011;30378;50.186;8.644;2022-11-30T13:58:19;39.28;;;11.60;;
44658;SDS011;30378;50.186;8.644;2022-11-30T14:00:59;35.88;;;10.82;;
44658;SDS011;30378;50.186;8.644;2022-11-30T14:03:44;38.00;;;10.63;;
44658;SDS011;30378;50.186;8.644;2022-11-30T14:06:47;30.98;;;10.95;;
44658;SDS011;30378;50.186;8.644;2022-11-30T14:10:01;35.33;;;12.95;;
44658;SDS011;30378;50.186;8.644;2022-11-30T14:14:59;42.97;;;11.57;;
44658;SDS011;30378;50.186;8.644;2022-11-30T14:17:27;37.00;;;12.18;;
44658;SDS011;30378;50.186;8.644;2022-11-30T14:20:05;44.53;;;12.77;;
44658;SDS011;30378;50.186;8.644;2022-11-30T14:22:44;39.42;;;13.68;;
44658;SDS011;30378;50.186;8.644;2022-11-30T14:25:15;41.97;;;12.90;;
44658;SDS011;30378;50.186;8.644;2022-11-30T14:27:44;39.28;;;12.90;;
44658;SDS011;30378;50.186;8.644;2022-11-30T14:30:16;37.15;;;12.23;;
44658;SDS011;30378;50.186;8.644;2022-11-30T14:32:48;39.97;;;12.20;;
44658;SDS011;30378;50.186;8.644;2022-11-30T14:35:21;39.28;;;12.75;;
44658;SDS011;30378;50.186;8.644;2022-11-30T14:37:52;42.85;;;13.57;;
44658;SDS011;30378;50.186;8.644;2022-11-30T14:40:21;37.78;;;13.18;;
44658;SDS011;30378;50.186;8.644;2022-11-30T14:42:52;36.42;;;11.93;;
44658;SDS011;30378;50.186;8.644;2022-11-30T14:45:24;38.10;;;12.65;;
44658;SDS011;30378;50.186;8.644;2022-11-30T14:48:11;35.45;;;11.88;;
44658;SDS011;30378;50.186;8.644;2022-11-30T14:50:43;35.67;;;12.30;;
44658;SDS011;30378;50.186;8.644;2022-11-30T14:55:54;36.33;;;12.45;;
44658;SDS011;30378;50.186;8.644;2022-11-30T14:58:42;40.88;;;12.48;;
44658;SDS011;30378;50.186;8.644;2022-11-30T15:01:18;36.08;;;11.77;;
44658;SDS011;30378;50.186;8.644;2022-11-30T15:03:49;38.17;;;12.00;;
44658;SDS011;30378;50.186;8.644;2022-11-30T15:06:19;38.10;;;13.02;;
44658;SDS011;30378;50.186;8.644;2022-11-30T15:08:51;37.15;;;12.10;;
44658;SDS011;30378;50.186;8.644;2022-11-30T15:11:21;40.60;;;13.00;;
44658;SDS011;30378;50.186;8.644;2022-11-30T15:13:49;38.28;;;12.15;;
44658;SDS011;30378;50.186;8.644;2022-11-30T15:18:52;33.50;;;12.02;;
44658;SDS011;30378;50.186;8.644;2022-11-30T15:21:26;33.13;;;11.80;;
44658;SDS011;30378;50.186;8.644;2022-11-30T15:23:58;31.48;;;10.65;;
44658;SDS011;30378;50.186;8.644;2022-11-30T15:29:47;31.63;;;12.50;;
44658;SDS011;30378;50.186;8.644;2022-11-30T15:32:21;32.45;;;11.23;;
44658;SDS011;30378;50.186;8.644;2022-11-30T15:34:50;33.80;;;11.20;;
44658;SDS011;30378;50.186;8.644;2022-11-30T15:37:34;27.70;;;10.15;;
44658;SDS011;30378;50.186;8.644;2022-11-30T15:40:06;30.83;;;10.05;;
44658;SDS011;30378;50.186;8.644;2022-11-30T15:42:36;25.73;;;10.23;;
44658;SDS011;30378;50.186;8.644;2022-11-30T15:45:06;32.50;;;11.70;;
44658;SDS011;30378;50.186;8.644;2022-11-30T15:48:00;28.40;;;10.50;;
44658;SDS011;30378;50.186;8.644;2022-11-30T15:50:30;32.10;;;11.20;;
44658;SDS011;30378;50.186;8.644;2022-11-30T15:53:22;33.83;;;11.70;;
44658;SDS011;30378;50.186;8.644;2022-11-30T15:55:51;34.42;;;12.05;;
44658;SDS011;30378;50.186;8.644;2022-11-30T15:58:26;32.47;;;11.32;;
44658;SDS011;30378;50.186;8.644;2022-11-30T16:01:16;30.77;;;11.77;;
44658;SDS011;30378;50.186;8.644;2022-11-30T16:06:22;33.50;;;11.40;;
44658;SDS011;30378;50.186;8.644;2022-11-30T16:08:51;30.83;;;12.32;;
44658;SDS011;30378;50.186;8.644;2022-11-30T16:11:18;35.85;;;13.35;;
44658;SDS011;30378;50.186;8.644;2022-11-30T16:13:46;34.50;;;13.45;;
44658;SDS011;30378;50.186;8.644;2022-11-30T16:16:17;34.03;;;12.38;;
44658;SDS011;30378;50.186;8.644;2022-11-30T16:21:16;33.45;;;12.05;;
44658;SDS011;30378;50.186;8.644;2022-11-30T16:23:44;35.00;;;11.75;;
44658;SDS011;30378;50.186;8.644;2022-11-30T16:26:13;30.77;;;11.75;;
44658;SDS011;30378;50.186;8.644;2022-11-30T16:29:01;32.80;;;10.77;;
44658;SDS011;30378;50.186;8.644;2022-11-30T16:31:30;35.60;;;11.30;;
44658;SDS011;30378;50.186;8.644;2022-11-30T16:33:57;27.08;;;12.60;;
44658;SDS011;30378;50.186;8.644;2022-11-30T16:36:24;29.05;;;10.68;;
44658;SDS011;30378;50.186;8.644;2022-11-30T16:38:52;31.60;;;11.23;;
44658;SDS011;30378;50.186;8.644;2022-11-30T16:41:20;27.80;;;11.10;;
44658;SDS011;30378;50.186;8.644;2022-11-30T16:43:55;27.77;;;9.95;;
44658;SDS011;30378;50.186;8.644;2022-11-30T16:46:24;28.67;;;11.00;;
44658;SDS011;30378;50.186;8.644;2022-11-30T16:48:52;26.17;;;11.48;;
44658;SDS011;30378;50.186;8.644;2022-11-30T16:51:20;28.75;;;11.57;;
44658;SDS011;30378;50.186;8.644;2022-11-30T16:53:56;28.20;;;10.95;;
44658;SDS011;30378;50.186;8.644;2022-11-30T16:56:23;26.52;;;10.15;;
44658;SDS011;30378;50.186;8.644;2022-11-30T16:58:51;26.17;;;10.48;;
44658;SDS011;30378;50.186;8.644;2022-11-30T17:01:25;26.00;;;10.93;;
44658;SDS011;30378;50.186;8.644;2022-11-30T17:04:00;23.55;;;9.52;;
44658;SDS011;30378;50.186;8.644;2022-11-30T17:06:51;28.13;;;9.32;;
44658;SDS011;30378;50.186;8.644;2022-11-30T17:09:21;28.40;;;11.32;;
44658;SDS011;30378;50.186;8.644;2022-11-30T17:11:48;27.88;;;11.32;;
44658;SDS011;30378;50.186;8.644;2022-11-30T17:14:16;23.98;;;9.48;;
44658;SDS011;30378;50.186;8.644;2022-11-30T17:16:44;26.75;;;9.90;;
44658;SDS011;30378;50.186;8.644;2022-11-30T17:19:16;24.83;;;9.70;;
44658;SDS011;30378;50.186;8.644;2022-11-30T17:21:43;24.33;;;9.75;;
44658;SDS011;30378;50.186;8.644;2022-11-30T17:26:37;26.25;;;9.45;;